createdAt,value
2023-05-08T00:00:31.076Z,11.07
2023-05-08T00:02:58.054Z,12.13
2023-05-08T00:05:25.092Z,12.13
2023-05-08T00:07:53.551Z,12.20
2023-05-08T00:10:20.320Z,12.10
2023-05-08T00:12:47.192Z,12.50
2023-05-08T00:15:13.913Z,12.57
2023-05-08T00:17:41.029Z,13.30
2023-05-08T00:20:08.848Z,12.13
2023-05-08T00:22:35.846Z,12.27
2023-05-08T00:25:04.395Z,12.67
2023-05-08T00:27:31.815Z,12.20
2023-05-08T00:29:58.943Z,12.80
2023-05-08T00:32:26.017Z,13.03
2023-05-08T00:34:52.946Z,13.30
2023-05-08T00:37:19.789Z,12.47
2023-05-08T00:39:46.700Z,13.23
2023-05-08T00:42:13.636Z,13.73
2023-05-08T00:44:41.255Z,12.83
2023-05-08T00:47:08.994Z,13.40
2023-05-08T00:49:36.248Z,13.83
2023-05-08T00:52:08.611Z,14.67
2023-05-08T00:54:39.046Z,13.83
2023-05-08T00:57:09.347Z,12.53
2023-05-08T00:59:37.285Z,13.50
2023-05-08T01:02:05.170Z,12.37
2023-05-08T01:04:33.288Z,13.23
2023-05-08T01:07:03.920Z,12.50
2023-05-08T01:09:30.818Z,13.00
2023-05-08T01:12:15.356Z,13.77
2023-05-08T01:14:55.339Z,13.30
2023-05-08T01:17:39.135Z,12.53
2023-05-08T01:20:30.043Z,11.80
2023-05-08T01:23:18.052Z,12.83
2023-05-08T01:26:05.010Z,12.33
2023-05-08T01:29:16.355Z,12.47
2023-05-08T01:32:10.093Z,12.30
2023-05-08T01:34:46.320Z,12.93
2023-05-08T01:37:17.013Z,12.33
2023-05-08T01:39:59.024Z,12.40
2023-05-08T01:42:49.359Z,12.00
2023-05-08T01:45:32.202Z,12.23
2023-05-08T01:48:08.918Z,11.60
2023-05-08T01:50:45.644Z,11.33
2023-05-08T01:53:36.806Z,13.30
2023-05-08T01:56:12.041Z,12.27
2023-05-08T01:58:40.045Z,12.87
2023-05-08T02:01:08.144Z,13.23
2023-05-08T02:03:36.697Z,13.23
2023-05-08T02:06:05.272Z,14.00
2023-05-08T02:08:33.327Z,14.40
2023-05-08T02:11:01.766Z,14.50
2023-05-08T02:13:30.271Z,14.53
2023-05-08T02:15:58.281Z,14.20
2023-05-08T02:18:26.281Z,14.97
2023-05-08T02:20:54.842Z,15.10
2023-05-08T02:23:24.592Z,15.27
2023-05-08T02:25:53.249Z,16.20
2023-05-08T02:28:21.665Z,15.47
2023-05-08T02:30:50.232Z,15.90
2023-05-08T02:33:18.438Z,15.67
2023-05-08T02:35:46.880Z,15.50
2023-05-08T02:38:15.716Z,15.17
2023-05-08T02:40:47.293Z,14.73
2023-05-08T02:43:14.471Z,14.93
2023-05-08T02:45:54.806Z,15.57
2023-05-08T02:48:30.711Z,15.47
2023-05-08T02:51:04.864Z,16.70
2023-05-08T02:53:52.246Z,14.97
2023-05-08T02:56:43.448Z,14.97
2023-05-08T02:59:19.039Z,15.30
2023-05-08T03:02:05.617Z,14.43
2023-05-08T03:04:41.914Z,15.03
2023-05-08T03:07:09.087Z,15.23
2023-05-08T03:09:50.756Z,14.83
2023-05-08T03:12:26.894Z,16.23
2023-05-08T03:15:02.356Z,15.13
2023-05-08T03:17:32.672Z,15.27
2023-05-08T03:20:03.635Z,15.47
2023-05-08T03:22:33.113Z,14.77
2023-05-08T03:25:01.510Z,15.37
2023-05-08T03:27:30.224Z,14.67
2023-05-08T03:29:59.495Z,14.93
2023-05-08T03:32:28.320Z,14.33
2023-05-08T03:34:58.724Z,14.93
2023-05-08T03:37:28.052Z,15.40
2023-05-08T03:39:56.122Z,15.37
2023-05-08T03:42:24.468Z,15.87
2023-05-08T03:44:52.289Z,15.77
2023-05-08T03:47:20.283Z,15.13
2023-05-08T03:49:49.388Z,15.47
2023-05-08T03:52:16.839Z,15.70
2023-05-08T03:54:43.844Z,15.87
2023-05-08T03:57:10.819Z,15.90
2023-05-08T03:59:53.222Z,16.10
2023-05-08T04:02:39.379Z,15.27
2023-05-08T04:05:43.511Z,15.27
2023-05-08T04:08:17.428Z,15.97
2023-05-08T04:10:59.464Z,15.73
2023-05-08T04:13:31.140Z,16.03
2023-05-08T04:16:17.420Z,15.60
2023-05-08T04:18:49.800Z,15.50
2023-05-08T04:21:23.478Z,14.77
2023-05-08T04:23:51.556Z,14.97
2023-05-08T04:26:19.095Z,15.50
2023-05-08T04:28:49.110Z,14.27
2023-05-08T04:31:17.226Z,13.80
2023-05-08T04:33:47.696Z,13.63
2023-05-08T04:36:14.856Z,11.43
2023-05-08T04:38:41.768Z,10.87
2023-05-08T04:41:08.909Z,10.77
2023-05-08T04:43:36.795Z,11.10
2023-05-08T04:46:06.174Z,9.10
2023-05-08T04:48:34.053Z,9.47
2023-05-08T04:51:01.075Z,8.13
2023-05-08T04:53:28.035Z,8.17
2023-05-08T04:55:54.879Z,7.37
2023-05-08T04:58:21.743Z,7.77
2023-05-08T05:00:49.086Z,7.83
2023-05-08T05:03:16.081Z,8.27
2023-05-08T05:05:43.074Z,7.93
2023-05-08T05:08:09.885Z,7.20
2023-05-08T05:10:38.995Z,7.70
2023-05-08T05:13:06.071Z,8.30
2023-05-08T05:15:32.978Z,8.07
2023-05-08T05:17:59.852Z,8.70
2023-05-08T05:20:26.674Z,9.50
2023-05-08T05:22:53.449Z,8.57
2023-05-08T05:25:20.336Z,9.10
2023-05-08T05:27:47.212Z,9.13
2023-05-08T05:30:14.414Z,9.43
2023-05-08T05:32:41.558Z,9.27
2023-05-08T05:35:09.738Z,9.13
2023-05-08T05:37:36.650Z,10.20
2023-05-08T05:40:06.027Z,10.40
2023-05-08T05:42:32.868Z,10.57
2023-05-08T05:44:59.732Z,10.80
2023-05-08T05:47:26.931Z,10.87
2023-05-08T05:49:53.720Z,10.93
2023-05-08T05:52:20.535Z,10.70
2023-05-08T05:54:47.604Z,11.40
2023-05-08T05:57:14.716Z,11.17
2023-05-08T05:59:41.601Z,11.57
2023-05-08T06:02:10.581Z,11.93
2023-05-08T06:04:37.531Z,11.23
2023-05-08T06:07:04.325Z,13.50
2023-05-08T06:09:31.234Z,13.00
2023-05-08T06:11:58.031Z,14.20
2023-05-08T06:14:24.877Z,13.33
2023-05-08T06:16:51.974Z,14.20
2023-05-08T06:19:18.817Z,14.97
2023-05-08T06:21:45.627Z,14.67
2023-05-08T06:24:12.397Z,17.70
2023-05-08T06:26:39.226Z,16.93
2023-05-08T06:29:06.202Z,16.90
2023-05-08T06:31:33.152Z,18.23
2023-05-08T06:34:00.138Z,19.93
2023-05-08T06:36:27.314Z,21.57
2023-05-08T06:38:54.229Z,26.43
2023-05-08T06:41:21.838Z,25.03
2023-05-08T06:43:48.632Z,24.20
2023-05-08T06:46:16.160Z,24.80
2023-05-08T06:48:43.026Z,25.60
2023-05-08T06:51:09.878Z,25.10
2023-05-08T06:53:36.663Z,25.97
2023-05-08T06:56:03.481Z,26.17
2023-05-08T06:58:32.172Z,28.90
2023-05-08T07:01:02.078Z,25.87
2023-05-08T07:03:28.993Z,23.53
2023-05-08T07:05:56.337Z,20.33
2023-05-08T07:08:23.180Z,18.47
2023-05-08T07:10:49.959Z,19.97
2023-05-08T07:13:21.710Z,19.50
2023-05-08T07:15:48.743Z,20.73
2023-05-08T07:18:15.652Z,19.53
2023-05-08T07:20:42.531Z,19.93
2023-05-08T07:23:09.994Z,19.83
2023-05-08T07:25:36.948Z,19.87
2023-05-08T07:28:04.010Z,19.37
2023-05-08T07:30:30.947Z,19.37
2023-05-08T07:32:57.803Z,18.93
2023-05-08T07:35:24.725Z,20.57
2023-05-08T07:37:51.540Z,19.93
2023-05-08T07:40:18.634Z,19.77
2023-05-08T07:42:45.624Z,19.00
2023-05-08T07:45:14.170Z,19.80
2023-05-08T07:47:55.906Z,19.60
2023-05-08T07:50:23.871Z,19.43
2023-05-08T07:52:51.239Z,20.10
2023-05-08T07:55:18.924Z,20.73
2023-05-08T07:57:46.317Z,20.23
2023-05-08T08:00:14.858Z,19.77
2023-05-08T08:02:42.971Z,20.20
2023-05-08T08:05:10.265Z,20.73
2023-05-08T08:07:37.447Z,19.93
2023-05-08T08:10:05.059Z,20.93
2023-05-08T08:12:32.083Z,21.70
2023-05-08T08:14:58.933Z,19.80
2023-05-08T08:17:28.427Z,20.97
2023-05-08T08:19:55.878Z,21.33
2023-05-08T08:22:23.330Z,21.03
2023-05-08T08:24:51.436Z,22.33
2023-05-08T08:27:19.227Z,23.43
2023-05-08T08:29:46.059Z,23.57
2023-05-08T08:32:13.026Z,22.83
2023-05-08T08:34:39.961Z,26.03
2023-05-08T08:37:07.048Z,26.03
2023-05-08T08:39:34.548Z,24.90
2023-05-08T08:42:02.097Z,26.13
2023-05-08T08:44:29.966Z,24.30
2023-05-08T08:47:00.199Z,24.33
2023-05-08T08:49:34.471Z,25.70
2023-05-08T08:52:11.914Z,26.13
2023-05-08T08:54:41.399Z,24.93
2023-05-08T08:57:09.856Z,26.13
2023-05-08T08:59:39.534Z,27.83
2023-05-08T09:02:11.731Z,26.37
2023-05-08T09:04:39.101Z,25.83
2023-05-08T09:07:07.201Z,25.23
2023-05-08T09:09:35.933Z,23.90
2023-05-08T09:12:02.949Z,24.17
2023-05-08T09:14:29.784Z,23.67
2023-05-08T09:16:56.726Z,22.43
2023-05-08T09:19:27.111Z,22.77
2023-05-08T09:21:58.467Z,23.27
2023-05-08T09:24:25.340Z,22.37
2023-05-08T09:26:52.146Z,23.87
2023-05-08T09:29:21.935Z,22.00
2023-05-08T09:31:53.038Z,22.80
2023-05-08T09:34:24.757Z,22.53
2023-05-08T09:36:51.629Z,23.83
2023-05-08T09:39:25.956Z,25.47
2023-05-08T09:42:03.587Z,25.27
2023-05-08T09:44:45.277Z,25.50
2023-05-08T09:47:13.156Z,24.80
2023-05-08T09:49:40.711Z,27.00
2023-05-08T09:52:08.502Z,29.47
2023-05-08T09:54:35.476Z,27.93
2023-05-08T09:57:12.858Z,27.93
2023-05-08T09:59:39.712Z,29.63
2023-05-08T10:02:12.969Z,29.73
2023-05-08T10:04:40.050Z,30.00
2023-05-08T10:07:07.146Z,29.30
2023-05-08T10:09:46.890Z,29.17
2023-05-08T10:12:17.346Z,28.80
2023-05-08T10:14:46.368Z,27.90
2023-05-08T10:17:15.599Z,27.30
2023-05-08T10:19:46.129Z,27.80
2023-05-08T10:22:15.823Z,27.83
2023-05-08T10:24:45.607Z,27.33
2023-05-08T10:27:19.573Z,29.53
2023-05-08T10:29:58.784Z,26.93
2023-05-08T10:32:28.582Z,26.57
2023-05-08T10:35:03.706Z,28.20
2023-05-08T10:37:31.221Z,28.53
2023-05-08T10:39:58.898Z,27.07
2023-05-08T10:42:27.727Z,28.37
2023-05-08T10:44:55.589Z,25.77
2023-05-08T10:47:53.695Z,26.13
2023-05-08T10:50:56.576Z,24.93
2023-05-08T10:53:53.998Z,26.43
2023-05-08T10:56:28.926Z,24.33
2023-05-08T10:58:57.634Z,24.47
2023-05-08T11:01:25.358Z,25.40
2023-05-08T11:03:52.971Z,26.37
2023-05-08T11:06:49.174Z,24.43
2023-05-08T11:09:23.161Z,25.17
2023-05-08T11:12:00.429Z,24.80
2023-05-08T11:14:28.114Z,27.73
2023-05-08T11:16:55.018Z,25.63
2023-05-08T11:19:23.601Z,23.70
2023-05-08T11:22:19.320Z,25.23
2023-05-08T11:24:54.941Z,24.03
2023-05-08T11:27:51.151Z,24.70
2023-05-08T11:30:38.018Z,26.23
2023-05-08T11:33:05.256Z,25.20
2023-05-08T11:35:44.171Z,26.53
2023-05-08T11:38:23.227Z,26.40
2023-05-08T11:41:08.883Z,25.47
2023-05-08T11:43:38.586Z,24.50
2023-05-08T11:46:15.410Z,25.70
2023-05-08T11:48:42.427Z,25.43
2023-05-08T11:51:09.986Z,27.20
2023-05-08T11:53:38.075Z,24.30
2023-05-08T11:56:05.303Z,25.23
2023-05-08T11:58:32.234Z,23.90
2023-05-08T12:00:59.070Z,22.73
2023-05-08T12:03:26.142Z,23.47
2023-05-08T12:05:57.169Z,24.47
2023-05-08T12:08:24.144Z,23.53
2023-05-08T12:10:59.976Z,23.30
2023-05-08T12:13:29.432Z,21.80
2023-05-08T12:15:57.667Z,23.37
2023-05-08T12:18:26.785Z,23.73
2023-05-08T12:20:59.260Z,22.90
2023-05-08T12:23:29.454Z,24.63
2023-05-08T12:26:00.191Z,23.20
2023-05-08T12:28:27.480Z,21.27
2023-05-08T12:30:54.534Z,23.07
2023-05-08T12:33:21.802Z,22.37
2023-05-08T12:35:49.126Z,24.23
2023-05-08T12:38:17.168Z,22.87
2023-05-08T12:40:44.948Z,21.17
2023-05-08T12:43:12.104Z,20.87
2023-05-08T12:45:41.381Z,20.00
2023-05-08T12:48:12.258Z,20.27
2023-05-08T12:50:44.892Z,20.70
2023-05-08T12:53:13.925Z,20.50
2023-05-08T12:55:52.895Z,20.97
2023-05-08T12:58:21.132Z,19.07
2023-05-08T13:00:50.065Z,19.80
2023-05-08T13:03:28.533Z,20.60
2023-05-08T13:05:58.385Z,19.70
2023-05-08T13:08:32.206Z,18.27
2023-05-08T13:10:59.891Z,18.13
2023-05-08T13:13:30.424Z,19.13
2023-05-08T13:15:57.714Z,18.13
2023-05-08T13:18:28.208Z,18.83
2023-05-08T13:20:56.196Z,17.70
2023-05-08T13:23:23.587Z,18.57
2023-05-08T13:25:51.279Z,17.60
2023-05-08T13:28:18.327Z,18.17
2023-05-08T13:30:45.211Z,18.80
2023-05-08T13:33:12.193Z,18.90
2023-05-08T13:35:39.347Z,18.30
2023-05-08T13:38:06.343Z,17.70
2023-05-08T13:40:33.472Z,18.60
2023-05-08T13:43:00.411Z,19.90
2023-05-08T13:45:27.422Z,18.53
2023-05-08T13:47:54.745Z,18.97
2023-05-08T13:50:22.359Z,18.63
2023-05-08T13:52:51.688Z,20.20
2023-05-08T13:55:22.763Z,21.37
2023-05-08T13:57:49.796Z,20.60
2023-05-08T14:00:17.461Z,19.57
2023-05-08T14:02:44.484Z,19.97
2023-05-08T14:05:11.743Z,18.70
2023-05-08T14:07:38.981Z,19.27
2023-05-08T14:10:06.189Z,19.57
2023-05-08T14:12:36.469Z,20.23
2023-05-08T14:15:07.080Z,20.07
2023-05-08T14:17:34.071Z,20.40
2023-05-08T14:20:01.027Z,20.00
2023-05-08T14:22:27.898Z,20.87
2023-05-08T14:24:54.991Z,21.87
2023-05-08T14:27:21.981Z,21.53
2023-05-08T14:29:49.307Z,21.30
2023-05-08T14:32:16.172Z,21.60
2023-05-08T14:34:43.010Z,22.50
2023-05-08T14:37:09.854Z,23.47
2023-05-08T14:39:36.760Z,23.40
2023-05-08T14:44:33.473Z,24.53
2023-05-08T14:47:00.433Z,24.57
2023-05-08T14:52:14.189Z,25.40
2023-05-08T14:54:41.188Z,23.20
2023-05-08T14:57:08.158Z,24.03
2023-05-08T14:59:34.972Z,21.77
2023-05-08T15:02:02.137Z,22.80
2023-05-08T15:04:29.044Z,22.87
2023-05-08T15:06:55.915Z,22.93
2023-05-08T15:09:22.742Z,24.20
2023-05-08T15:11:49.594Z,23.87
2023-05-08T15:14:16.391Z,23.37
2023-05-08T15:16:43.334Z,23.63
2023-05-08T15:19:10.432Z,23.10
2023-05-08T15:21:37.245Z,22.97
2023-05-08T15:24:04.364Z,21.03
2023-05-08T15:26:31.128Z,20.67
2023-05-08T15:28:57.970Z,20.03
2023-05-08T15:31:24.813Z,20.63
2023-05-08T15:33:51.750Z,19.97
2023-05-08T15:36:18.587Z,21.27
2023-05-08T15:38:45.566Z,19.13
2023-05-08T15:41:15.054Z,20.57
2023-05-08T15:43:43.038Z,18.17
2023-05-08T15:46:10.138Z,18.20
2023-05-08T15:48:37.229Z,19.50
2023-05-08T15:51:04.174Z,18.93
2023-05-08T15:53:30.997Z,17.27
2023-05-08T15:55:57.788Z,19.27
2023-05-08T15:58:24.894Z,17.43
2023-05-08T16:00:52.136Z,18.77
2023-05-08T16:03:19.445Z,17.90
2023-05-08T16:05:46.547Z,18.03
2023-05-08T16:08:13.889Z,18.97
2023-05-08T16:10:41.896Z,18.77
2023-05-08T16:13:09.130Z,18.03
2023-05-08T16:15:36.211Z,19.53
2023-05-08T16:18:03.509Z,17.80
2023-05-08T16:20:31.528Z,18.77
2023-05-08T16:22:59.809Z,17.40
2023-05-08T16:25:26.636Z,18.03
2023-05-08T16:27:53.557Z,17.63
2023-05-08T16:30:20.528Z,16.77
2023-05-08T16:32:47.538Z,17.90
2023-05-08T16:35:15.058Z,17.77
2023-05-08T16:37:42.411Z,18.13
2023-05-08T16:40:10.048Z,17.97
2023-05-08T16:42:37.333Z,16.47
2023-05-08T16:45:08.239Z,16.37
2023-05-08T16:47:35.542Z,15.20
2023-05-08T16:50:03.225Z,20.27
2023-05-08T16:52:30.528Z,26.00
2023-05-08T16:54:57.436Z,26.70
2023-05-08T16:57:24.423Z,26.27
2023-05-08T16:59:52.035Z,25.30
2023-05-08T17:02:19.156Z,24.20
2023-05-08T17:04:47.288Z,22.17
2023-05-08T17:07:15.619Z,21.70
2023-05-08T17:09:42.673Z,19.77
2023-05-08T17:12:10.059Z,21.20
2023-05-08T17:14:40.806Z,20.03
2023-05-08T17:17:08.202Z,19.47
2023-05-08T17:19:35.212Z,19.87
2023-05-08T17:22:02.562Z,20.77
2023-05-08T17:24:32.741Z,20.70
2023-05-08T17:26:59.743Z,19.27
2023-05-08T17:29:26.608Z,17.80
2023-05-08T17:31:53.549Z,18.83
2023-05-08T17:34:20.851Z,18.33
2023-05-08T17:36:47.771Z,19.33
2023-05-08T17:39:14.933Z,19.63
2023-05-08T17:41:41.790Z,19.40
2023-05-08T17:44:08.615Z,19.20
2023-05-08T17:46:35.463Z,20.60
2023-05-08T17:49:02.316Z,22.00
2023-05-08T17:51:29.321Z,21.90
2023-05-08T17:53:56.686Z,23.03
2023-05-08T17:56:23.983Z,21.97
2023-05-08T17:58:52.549Z,22.87
2023-05-08T18:01:20.373Z,22.23
2023-05-08T18:03:50.866Z,23.33
2023-05-08T18:06:18.184Z,22.33
2023-05-08T18:08:47.079Z,22.77
2023-05-08T18:11:22.400Z,22.33
2023-05-08T18:13:50.287Z,23.83
2023-05-08T18:16:18.842Z,23.33
2023-05-08T18:18:45.789Z,24.00
2023-05-08T18:21:12.788Z,24.63
2023-05-08T18:23:39.950Z,24.53
2023-05-08T18:26:07.562Z,22.83
2023-05-08T18:28:36.218Z,23.47
2023-05-08T18:31:03.440Z,22.93
2023-05-08T18:33:30.309Z,25.10
2023-05-08T18:35:57.238Z,23.33
2023-05-08T18:38:24.217Z,23.53
2023-05-08T18:40:51.112Z,23.33
2023-05-08T18:43:17.899Z,24.63
2023-05-08T18:45:44.819Z,24.67
2023-05-08T18:48:11.636Z,24.10
2023-05-08T18:50:38.640Z,24.77
2023-05-08T18:53:06.407Z,24.20
2023-05-08T18:55:33.352Z,23.17
2023-05-08T18:58:00.177Z,24.13
2023-05-08T19:00:27.047Z,24.53
2023-05-08T19:02:54.024Z,24.27
2023-05-08T19:05:21.197Z,24.43
2023-05-08T19:07:48.091Z,25.50
2023-05-08T19:10:15.218Z,25.63
2023-05-08T19:12:42.863Z,25.83
2023-05-08T19:15:13.411Z,26.27
2023-05-08T19:17:40.787Z,25.43
2023-05-08T19:20:08.270Z,25.63
2023-05-08T19:22:35.961Z,25.57
2023-05-08T19:25:03.446Z,27.37
2023-05-08T19:27:32.058Z,25.03
2023-05-08T19:29:59.063Z,26.63
2023-05-08T19:32:26.133Z,26.27
2023-05-08T19:34:53.586Z,24.60
2023-05-08T19:37:20.458Z,26.73
2023-05-08T19:39:47.374Z,26.17
2023-05-08T19:42:14.221Z,27.57
2023-05-08T19:44:41.252Z,27.17
2023-05-08T19:47:08.147Z,27.47
2023-05-08T19:49:35.043Z,26.37
2023-05-08T19:52:01.962Z,27.57
2023-05-08T19:54:30.325Z,29.40
2023-05-08T19:56:57.466Z,28.07
2023-05-08T19:59:24.431Z,27.87
2023-05-08T20:01:51.423Z,28.20
2023-05-08T20:04:18.311Z,27.23
2023-05-08T20:06:47.959Z,27.83
2023-05-08T20:09:14.815Z,27.10
2023-05-08T20:11:41.682Z,27.33
2023-05-08T20:14:08.821Z,27.50
2023-05-08T20:16:36.042Z,26.70
2023-05-08T20:19:03.089Z,27.77
2023-05-08T20:21:32.422Z,26.57
2023-05-08T20:23:59.795Z,27.80
2023-05-08T20:26:29.432Z,25.90
2023-05-08T20:28:56.970Z,26.57
2023-05-08T20:31:25.739Z,26.83
2023-05-08T20:33:52.763Z,26.37
2023-05-08T20:36:20.543Z,26.20
2023-05-08T20:38:47.540Z,26.13
2023-05-08T20:41:14.426Z,27.40
2023-05-08T20:43:41.308Z,26.90
2023-05-08T20:46:08.413Z,26.70
2023-05-08T20:48:35.364Z,26.03
2023-05-08T20:51:02.204Z,25.57
2023-05-08T20:53:29.175Z,27.67
2023-05-08T20:56:05.788Z,27.30
2023-05-08T20:58:32.624Z,26.17
2023-05-08T21:00:59.470Z,26.87
2023-05-08T21:03:26.347Z,25.53
2023-05-08T21:05:55.087Z,25.27
2023-05-08T21:08:23.686Z,27.00
2023-05-08T21:10:51.881Z,28.17
2023-05-08T21:13:19.318Z,26.70
2023-05-08T21:15:50.318Z,26.03
2023-05-08T21:18:17.422Z,25.70
2023-05-08T21:20:50.351Z,26.60
2023-05-08T21:23:18.138Z,26.47
2023-05-08T21:25:48.638Z,25.57
2023-05-08T21:28:16.473Z,27.40
2023-05-08T21:30:44.294Z,27.60
2023-05-08T21:33:13.683Z,26.20
2023-05-08T21:35:41.752Z,24.93
2023-05-08T21:38:09.316Z,26.30
2023-05-08T21:40:36.159Z,26.20
2023-05-08T21:43:02.942Z,23.87
2023-05-08T21:45:31.326Z,25.50
2023-05-08T21:47:58.795Z,23.80
2023-05-08T21:50:26.110Z,24.00
2023-05-08T21:52:53.289Z,21.17
2023-05-08T21:55:21.047Z,22.47
2023-05-08T21:57:48.261Z,23.00
2023-05-08T22:00:16.553Z,21.80
2023-05-08T22:02:43.388Z,23.00
2023-05-08T22:05:10.423Z,21.97
2023-05-08T22:07:37.230Z,21.07
2023-05-08T22:10:04.397Z,21.10
2023-05-08T22:12:31.167Z,21.70
2023-05-08T22:14:57.996Z,21.97
2023-05-08T22:17:24.929Z,21.00
2023-05-08T22:19:51.773Z,20.43
2023-05-08T22:22:18.556Z,22.23
2023-05-08T22:24:45.372Z,20.43
2023-05-08T22:27:12.193Z,20.40
2023-05-08T22:29:38.993Z,21.97
2023-05-08T22:32:06.035Z,22.47
2023-05-08T22:34:32.857Z,21.40
2023-05-08T22:36:59.635Z,21.43
2023-05-08T22:39:26.518Z,22.73
2023-05-08T22:41:54.271Z,21.03
2023-05-08T22:44:21.345Z,22.07
2023-05-08T22:46:48.239Z,22.23
2023-05-08T22:49:15.123Z,22.97
2023-05-08T22:51:42.168Z,22.97
2023-05-08T22:54:08.991Z,21.83
2023-05-08T22:56:35.866Z,23.23
2023-05-08T22:59:02.740Z,22.80
2023-05-08T23:01:29.675Z,23.23
2023-05-08T23:03:56.634Z,22.00
2023-05-08T23:06:24.248Z,23.73
2023-05-08T23:08:51.033Z,23.43
2023-05-08T23:11:17.897Z,22.50
2023-05-08T23:13:44.730Z,24.17
2023-05-08T23:16:11.551Z,24.53
2023-05-08T23:18:38.879Z,24.30
2023-05-08T23:21:07.440Z,23.10
2023-05-08T23:23:34.965Z,23.37
2023-05-08T23:26:04.868Z,24.67
2023-05-08T23:28:34.063Z,24.80
2023-05-08T23:31:01.710Z,24.23
2023-05-08T23:33:28.842Z,23.37
2023-05-08T23:35:59.088Z,24.77
2023-05-08T23:38:26.234Z,25.23
2023-05-08T23:40:53.014Z,25.83
2023-05-08T23:43:19.853Z,25.50
2023-05-08T23:45:46.801Z,25.73
2023-05-08T23:48:13.608Z,24.63
2023-05-08T23:50:41.735Z,24.53
2023-05-08T23:53:08.604Z,24.07
2023-05-08T23:55:37.271Z,24.23
2023-05-08T23:58:04.711Z,22.90
